Time;durP1;ratioP1;P1;durP2;ratioP2;P2;SDS_P1;SDS_P2;PMS_P1;PMS_P2;Temp;Humidity;BMP_temperature;BMP_pressure;BME280_temperature;BME280_humidity;BME280_pressure;Samples;Min_cycle;Max_cycle;Signal;HPM_P1;HPM_P2
2022/05/10 00:00:11;;;;;;;13.27;7.43;;;12.90;99.90;;;;;;5032475;28;20412;-74
2022/05/10 00:02:38;;;;;;;11.70;5.93;;;12.80;99.90;;;;;;5014394;28;20143;-73
2022/05/10 00:05:08;;;;;;;14.95;7.03;;;12.70;99.90;;;;;;5014713;28;20045;-72
2022/05/10 00:07:37;;;;;;;16.80;6.63;;;12.70;99.90;;;;;;5032067;28;20049;-73
2022/05/10 00:10:07;;;;;;;13.95;7.00;;;12.70;99.90;;;;;;5014626;28;20049;-74
2022/05/10 00:12:33;;;;;;;15.20;6.03;;;12.60;99.90;;;;;;5014823;28;20136;-75
2022/05/10 00:15:00;;;;;;;17.65;7.47;;;12.60;99.90;;;;;;5014587;28;20104;-73
2022/05/10 00:17:31;;;;;;;13.18;7.13;;;12.60;99.90;;;;;;5031652;28;20089;-75
2022/05/10 00:19:58;;;;;;;15.82;7.00;;;12.60;99.90;;;;;;5032612;28;20066;-73
2022/05/10 00:22:27;;;;;;;13.60;6.82;;;12.50;99.90;;;;;;5014840;28;20092;-74
2022/05/10 00:24:53;;;;;;;17.42;7.20;;;12.50;99.90;;;;;;5013927;28;20557;-74
2022/05/10 00:27:20;;;;;;;20.52;7.20;;;12.50;99.90;;;;;;5014586;28;20407;-74
2022/05/10 00:29:47;;;;;;;12.60;7.07;;;12.50;99.90;;;;;;5014776;28;20058;-74
2022/05/10 00:32:14;;;;;;;13.23;6.22;;;12.60;99.90;;;;;;5031536;28;20112;-73
2022/05/10 00:34:41;;;;;;;14.88;7.18;;;12.60;99.90;;;;;;5015664;28;20053;-73
2022/05/10 00:37:10;;;;;;;9.73;6.35;;;12.60;99.90;;;;;;5018100;28;20488;-72
2022/05/10 00:39:38;;;;;;;14.60;7.68;;;12.60;99.90;;;;;;5035287;28;20058;-74
2022/05/10 00:42:12;;;;;;;13.93;6.80;;;12.70;99.90;;;;;;5017801;28;20053;-75
2022/05/10 00:44:45;;;;;;;9.48;6.88;;;12.60;99.90;;;;;;5017172;28;20046;-73
2022/05/10 00:47:18;;;;;;;23.38;7.30;;;12.70;99.90;;;;;;5035409;28;20072;-73
2022/05/10 00:49:51;;;;;;;9.43;5.78;;;12.70;99.90;;;;;;5035387;28;20049;-75
2022/05/10 00:52:26;;;;;;;16.50;6.88;;;12.70;99.90;;;;;;5017403;28;20500;-73
2022/05/10 00:54:59;;;;;;;13.45;6.72;;;12.70;99.90;;;;;;5017740;28;20085;-74
2022/05/10 00:57:31;;;;;;;15.32;7.05;;;12.70;99.90;;;;;;5017365;28;20073;-73
2022/05/10 01:00:07;;;;;;;12.77;7.30;;;12.70;99.90;;;;;;5017681;28;20054;-74
2022/05/10 01:02:44;;;;;;;15.80;6.45;;;12.70;99.90;;;;;;5035184;28;20090;-74
2022/05/10 01:05:18;;;;;;;16.25;6.65;;;12.70;99.90;;;;;;5018023;28;20524;-73
2022/05/10 01:07:52;;;;;;;14.40;6.53;;;12.70;99.90;;;;;;4997640;28;20046;-74
2022/05/10 01:10:29;;;;;;;14.25;6.68;;;12.70;99.90;;;;;;5015316;28;20089;-73
2022/05/10 01:13:04;;;;;;;10.93;6.80;;;12.70;99.90;;;;;;4998859;28;20054;-74
2022/05/10 01:15:32;;;;;;;10.75;6.43;;;12.70;99.90;;;;;;5035310;28;20089;-74
2022/05/10 01:17:59;;;;;;;14.30;6.57;;;12.60;99.90;;;;;;5016698;28;20473;-74
2022/05/10 01:20:36;;;;;;;19.75;6.50;;;12.60;99.90;;;;;;5016811;28;20099;-74
2022/05/10 01:23:28;;;;;;;11.55;5.85;;;12.70;99.90;;;;;;5017341;28;20065;-74
2022/05/10 01:26:03;;;;;;;9.55;5.68;;;12.60;99.90;;;;;;5017363;28;20080;-73
2022/05/10 01:28:34;;;;;;;11.05;6.65;;;12.60;99.90;;;;;;5034408;28;20470;-74
2022/05/10 01:31:07;;;;;;;14.07;6.00;;;12.60;99.90;;;;;;5017367;28;20092;-73
2022/05/10 01:33:40;;;;;;;16.05;6.18;;;12.60;99.90;;;;;;5033919;28;20046;-75
2022/05/10 01:36:21;;;;;;;11.60;5.32;;;12.60;99.90;;;;;;5035156;28;20464;-74
2022/05/10 01:38:52;;;;;;;;;;;12.60;99.90;;;;;;5035068;28;20045;-73
2022/05/10 01:41:24;;;;;;;9.98;5.70;;;12.60;99.90;;;;;;5016672;28;19968;-74
2022/05/10 01:44:03;;;;;;;9.60;5.38;;;12.60;99.90;;;;;;5034662;28;20045;-75
2022/05/10 01:46:32;;;;;;;11.93;5.57;;;12.60;99.90;;;;;;5034467;28;20115;-75
2022/05/10 01:49:06;;;;;;;12.73;5.43;;;12.60;99.90;;;;;;5034202;28;20119;-74
2022/05/10 01:51:39;;;;;;;12.13;5.55;;;12.70;99.90;;;;;;5034802;28;20050;-74
2022/05/10 01:54:33;;;;;;;12.02;5.88;;;12.60;99.90;;;;;;5017051;28;20089;-74
2022/05/10 01:57:00;;;;;;;12.18;5.07;;;12.70;99.90;;;;;;4974656;28;20119;-74
2022/05/10 01:59:28;;;;;;;11.27;5.40;;;12.70;99.90;;;;;;5034100;28;20049;-74
2022/05/10 02:01:57;;;;;;;9.80;5.20;;;12.70;99.90;;;;;;5034179;28;20049;-74
2022/05/10 02:04:29;;;;;;;9.90;5.70;;;12.70;99.90;;;;;;5016924;28;20162;-74
2022/05/10 02:07:03;;;;;;;13.40;5.78;;;12.70;99.90;;;;;;5033613;28;20053;-73
2022/05/10 02:09:34;;;;;;;15.05;6.13;;;12.60;99.90;;;;;;5015994;28;20076;-74
2022/05/10 02:12:06;;;;;;;10.90;5.90;;;12.60;99.90;;;;;;5034244;28;20100;-73
2022/05/10 02:14:38;;;;;;;10.02;5.53;;;12.60;99.90;;;;;;5016137;28;20501;-75
2022/05/10 02:17:12;;;;;;;14.32;5.75;;;12.60;99.90;;;;;;5013883;28;20050;-75
2022/05/10 02:19:46;;;;;;;10.55;5.53;;;12.60;99.90;;;;;;5024010;28;20058;-74
2022/05/10 02:22:19;;;;;;;13.10;6.68;;;12.60;99.90;;;;;;5029018;28;20050;-74
2022/05/10 02:24:49;;;;;;;9.25;5.80;;;12.50;99.90;;;;;;5013739;28;20452;-74
2022/05/10 02:27:19;;;;;;;14.85;5.45;;;12.50;99.90;;;;;;5031973;28;20053;-74
2022/05/10 02:29:51;;;;;;;12.67;6.87;;;12.50;99.90;;;;;;5021199;28;20096;-73
2022/05/10 02:35:08;;;;;;;14.05;5.78;;;12.50;99.90;;;;;;5014853;28;20056;-74
2022/05/10 02:37:35;;;;;;;13.55;5.60;;;12.50;99.90;;;;;;5015293;28;20054;-73
2022/05/10 02:40:04;;;;;;;10.68;6.65;;;12.50;99.90;;;;;;5033720;28;20088;-74
2022/05/10 02:42:31;;;;;;;11.98;6.25;;;12.50;99.90;;;;;;5015872;28;20046;-74
2022/05/10 02:44:59;;;;;;;12.82;6.30;;;12.50;99.90;;;;;;5032749;28;20497;-74
2022/05/10 02:47:31;;;;;;;10.65;6.75;;;12.50;99.90;;;;;;5033804;28;20107;-74
2022/05/10 02:49:58;;;;;;;9.70;5.97;;;12.50;99.90;;;;;;5015796;28;20080;-74
2022/05/10 02:52:25;;;;;;;15.95;5.60;;;12.50;99.90;;;;;;5033147;28;20045;-73
2022/05/10 02:54:54;;;;;;;9.73;5.63;;;12.50;99.90;;;;;;5015653;28;20417;-73
2022/05/10 02:57:23;;;;;;;11.65;5.50;;;12.50;99.90;;;;;;5033152;28;20060;-74
2022/05/10 02:59:50;;;;;;;12.10;5.70;;;12.50;99.90;;;;;;5032807;28;20130;-74
2022/05/10 03:02:24;;;;;;;14.32;5.97;;;12.50;99.90;;;;;;5015712;28;20140;-74
2022/05/10 03:04:56;;;;;;;12.18;6.00;;;12.60;99.90;;;;;;5015670;28;20500;-74
2022/05/10 03:07:23;;;;;;;11.63;5.75;;;12.70;99.90;;;;;;5016293;28;20057;-74
2022/05/10 03:09:50;;;;;;;10.32;5.72;;;12.50;99.90;;;;;;5017377;28;20065;-73
2022/05/10 03:12:17;;;;;;;11.93;5.95;;;12.60;99.90;;;;;;5015777;28;20057;-74
2022/05/10 03:14:44;;;;;;;8.52;5.10;;;12.60;99.90;;;;;;5015884;28;20489;-75
2022/05/10 03:17:12;;;;;;;11.80;5.63;;;12.60;99.90;;;;;;5032898;28;20045;-74
2022/05/10 03:19:41;;;;;;;11.38;5.35;;;12.60;99.90;;;;;;5031712;28;20053;-74
2022/05/10 03:22:09;;;;;;;10.18;6.13;;;12.60;99.90;;;;;;5015292;28;20058;-74
2022/05/10 03:24:36;;;;;;;13.45;6.40;;;12.60;99.90;;;;;;5032796;28;20083;-72
2022/05/10 03:27:05;;;;;;;16.33;5.93;;;12.70;99.90;;;;;;5032237;28;20095;-74
2022/05/10 03:29:33;;;;;;;11.90;7.00;;;12.70;99.90;;;;;;5032373;28;20501;-74
2022/05/10 03:32:00;;;;;;;13.55;6.00;;;12.70;99.90;;;;;;5015105;28;20080;-74
2022/05/10 03:37:12;;;;;;;10.30;6.65;;;12.80;99.90;;;;;;5032736;28;20049;-75
2022/05/10 03:39:39;;;;;;;10.02;5.88;;;12.80;99.90;;;;;;5032668;28;20085;-74
2022/05/10 03:42:06;;;;;;;9.45;5.93;;;12.90;99.90;;;;;;5032303;28;20191;-71
2022/05/10 03:44:34;;;;;;;17.10;5.78;;;12.90;99.90;;;;;;5022585;28;20493;-74
2022/05/10 03:47:00;;;;;;;11.32;6.22;;;13.00;99.90;;;;;;5010016;28;20053;-73
2022/05/10 03:49:27;;;;;;;8.57;5.75;;;13.10;99.90;;;;;;5006601;28;20045;-73
2022/05/10 03:51:54;;;;;;;27.85;7.50;;;13.10;99.90;;;;;;5024344;28;20089;-73
2022/05/10 03:54:22;;;;;;;11.15;6.07;;;13.20;99.90;;;;;;5008628;28;20076;-73
2022/05/10 03:56:50;;;;;;;15.63;6.80;;;13.40;99.90;;;;;;5024666;28;20109;-74
2022/05/10 03:59:17;;;;;;;11.05;7.00;;;13.40;99.90;;;;;;5028754;28;20481;-74
2022/05/10 04:01:44;;;;;;;15.80;6.93;;;13.50;99.90;;;;;;5025835;28;20045;-73
2022/05/10 04:04:11;;;;;;;12.65;6.90;;;13.50;99.90;;;;;;5011481;28;20064;-73
2022/05/10 04:06:38;;;;;;;14.45;6.20;;;13.60;99.90;;;;;;5024650;28;20060;-74
2022/05/10 04:09:05;;;;;;;9.73;6.35;;;13.70;99.90;;;;;;5027868;28;20049;-74
2022/05/10 04:11:34;;;;;;;12.82;6.38;;;13.90;99.90;;;;;;5009641;28;20085;-73
2022/05/10 04:14:03;;;;;;;13.75;5.72;;;13.80;99.90;;;;;;5015975;28;20548;-73
2022/05/10 04:16:29;;;;;;;13.52;5.40;;;13.80;99.90;;;;;;5026915;28;20041;-74
2022/05/10 04:18:56;;;;;;;14.77;6.38;;;13.80;99.90;;;;;;5010693;28;20049;-74
2022/05/10 04:21:23;;;;;;;13.07;6.28;;;13.90;99.90;;;;;;5009705;28;20076;-74
2022/05/10 04:23:51;;;;;;;11.38;5.60;;;14.00;99.90;;;;;;5020797;28;20058;-73
2022/05/10 04:26:19;;;;;;;16.90;6.82;;;14.10;99.90;;;;;;5008295;28;20091;-72
2022/05/10 04:28:47;;;;;;;14.65;7.22;;;14.20;99.90;;;;;;5013506;28;20046;-73
2022/05/10 04:31:14;;;;;;;10.82;5.63;;;14.20;99.90;;;;;;4991383;28;20121;-74
2022/05/10 04:33:41;;;;;;;14.32;6.20;;;14.20;99.90;;;;;;4987243;28;20077;-73
2022/05/10 04:36:09;;;;;;;12.00;5.35;;;14.20;99.90;;;;;;4988638;28;20054;-72
2022/05/10 04:38:36;;;;;;;11.70;5.97;;;14.20;99.90;;;;;;4990844;28;20050;-73
2022/05/10 04:43:49;;;;;;;13.45;7.03;;;14.40;99.90;;;;;;5004893;28;20072;-74
2022/05/10 04:46:16;;;;;;;10.38;6.07;;;14.50;99.90;;;;;;4984972;28;20112;-73
2022/05/10 04:48:43;;;;;;;10.50;6.20;;;14.30;99.90;;;;;;4977184;28;20054;-74
2022/05/10 04:51:11;;;;;;;14.98;7.97;;;14.20;99.90;;;;;;4994271;28;20105;-74
2022/05/10 04:53:38;;;;;;;14.80;7.10;;;14.10;99.90;;;;;;4985273;28;20050;-74
2022/05/10 04:56:05;;;;;;;10.07;6.55;;;14.10;99.90;;;;;;4991070;28;20085;-73
2022/05/10 04:58:32;;;;;;;14.25;6.60;;;14.00;99.90;;;;;;5005265;28;20050;-73
2022/05/10 05:01:03;;;;;;;13.20;6.97;;;14.00;99.90;;;;;;5001270;28;20047;-75
2022/05/10 05:03:30;;;;;;;10.30;6.70;;;14.00;99.90;;;;;;5006464;28;20061;-74
2022/05/10 05:05:57;;;;;;;15.15;7.30;;;14.00;99.90;;;;;;5001938;28;20054;-73
2022/05/10 05:08:24;;;;;;;13.65;7.43;;;14.00;99.90;;;;;;5007343;28;20637;-73
2022/05/10 05:10:52;;;;;;;14.90;7.78;;;14.00;99.90;;;;;;5009913;28;20050;-73
2022/05/10 05:13:19;;;;;;;16.35;6.95;;;14.00;99.90;;;;;;4990630;28;20154;-75
2022/05/10 05:15:45;;;;;;;16.27;7.30;;;14.10;99.90;;;;;;4990606;28;20046;-74
2022/05/10 05:18:14;;;;;;;12.20;7.45;;;14.20;99.90;;;;;;4991024;28;20058;-73
2022/05/10 05:20:42;;;;;;;14.15;7.95;;;14.20;99.90;;;;;;4988974;28;20129;-74
2022/05/10 05:23:10;;;;;;;11.10;6.85;;;14.20;99.90;;;;;;5008349;28;20061;-74
2022/05/10 05:25:37;;;;;;;16.58;8.13;;;14.40;99.90;;;;;;4991036;28;20050;-73
2022/05/10 05:28:04;;;;;;;14.35;7.60;;;14.50;99.90;;;;;;4987920;28;20521;-74
2022/05/10 05:30:32;;;;;;;14.35;7.75;;;14.50;99.90;;;;;;4986507;28;20108;-74
2022/05/10 05:32:58;;;;;;;15.43;7.60;;;14.50;99.90;;;;;;5005992;28;20093;-74
2022/05/10 05:35:27;;;;;;;12.77;7.75;;;14.50;99.90;;;;;;5008664;28;20042;-74
2022/05/10 05:37:54;;;;;;;10.57;7.13;;;14.50;99.90;;;;;;4987957;28;20097;-74
2022/05/10 05:40:23;;;;;;;13.25;7.93;;;14.70;99.90;;;;;;4992533;28;20589;-74
2022/05/10 05:42:50;;;;;;;11.75;7.13;;;14.70;99.90;;;;;;5010945;28;20100;-75
2022/05/10 05:45:19;;;;;;;14.07;7.55;;;14.70;99.90;;;;;;5006148;28;20480;-75
2022/05/10 05:47:46;;;;;;;12.23;7.93;;;14.80;99.90;;;;;;5007121;28;20042;-74
2022/05/10 05:50:15;;;;;;;16.15;7.75;;;14.90;99.90;;;;;;5008859;28;20101;-75
2022/05/10 05:52:44;;;;;;;14.25;7.97;;;15.00;99.90;;;;;;5008934;28;20057;-74
2022/05/10 05:55:13;;;;;;;11.82;7.80;;;15.00;99.90;;;;;;4990679;28;20494;-74
2022/05/10 05:57:40;;;;;;;15.27;7.45;;;15.00;99.90;;;;;;4989317;28;20065;-73
2022/05/10 06:00:10;;;;;;;12.50;8.10;;;15.00;99.90;;;;;;5005594;28;20081;-74
2022/05/10 06:02:38;;;;;;;9.90;7.40;;;15.10;99.90;;;;;;5003182;28;20450;-73
2022/05/10 06:05:05;;;;;;;16.42;8.68;;;15.10;99.90;;;;;;4987705;28;20391;-73
2022/05/10 06:07:33;;;;;;;13.05;8.43;;;15.20;99.90;;;;;;5007498;28;20134;-73
2022/05/10 06:10:01;;;;;;;15.27;8.20;;;15.30;99.90;;;;;;4983947;28;20069;-73
2022/05/10 06:12:28;;;;;;;16.15;7.90;;;15.40;99.90;;;;;;5007440;28;20101;-72
2022/05/10 06:14:56;;;;;;;12.80;8.13;;;15.60;99.90;;;;;;5008718;28;20061;-74
2022/05/10 06:17:23;;;;;;;15.98;8.48;;;15.80;99.90;;;;;;4991170;28;20060;-73
2022/05/10 06:19:50;;;;;;;18.75;7.57;;;16.00;99.90;;;;;;4990232;28;20050;-74
2022/05/10 06:22:17;;;;;;;10.15;7.68;;;16.30;99.90;;;;;;4989312;28;20468;-72
2022/05/10 06:24:44;;;;;;;16.63;7.55;;;16.50;99.90;;;;;;5008620;28;20116;-73
2022/05/10 06:27:16;;;;;;;15.07;7.70;;;16.80;99.90;;;;;;5007757;28;20528;-73
2022/05/10 06:29:44;;;;;;;12.43;7.13;;;17.10;99.90;;;;;;4993128;28;20540;-73
2022/05/10 06:32:12;;;;;;;14.07;7.80;;;17.40;99.90;;;;;;5006246;28;20069;-73
2022/05/10 06:34:43;;;;;;;11.93;7.00;;;17.60;99.90;;;;;;5004206;28;20054;-74
2022/05/10 06:39:53;;;;;;;11.63;7.10;;;18.30;99.90;;;;;;5003779;28;20081;-73
2022/05/10 06:42:24;;;;;;;9.57;6.57;;;18.80;99.90;;;;;;5012914;28;20093;-74
2022/05/10 06:44:51;;;;;;;9.52;7.03;;;19.20;99.90;;;;;;5013449;28;20057;-74
2022/05/10 06:47:17;;;;;;;11.27;6.30;;;19.60;99.90;;;;;;5013503;28;20085;-74
2022/05/10 06:49:44;;;;;;;7.82;5.45;;;19.90;99.90;;;;;;5013561;28;20099;-74
2022/05/10 06:52:11;;;;;;;13.80;6.53;;;20.20;99.90;;;;;;5012620;28;20452;-74
2022/05/10 06:54:38;;;;;;;9.95;5.93;;;20.30;99.90;;;;;;4995586;28;20116;-74
2022/05/10 06:57:05;;;;;;;11.45;5.70;;;20.40;99.70;;;;;;5013196;28;20081;-74
2022/05/10 06:59:34;;;;;;;14.02;5.82;;;20.40;99.70;;;;;;4995377;28;20085;-74
2022/05/10 07:02:00;;;;;;;9.23;5.05;;;20.40;99.50;;;;;;5012601;28;20049;-73
2022/05/10 07:04:27;;;;;;;8.75;5.60;;;20.40;99.40;;;;;;4995247;28;20054;-75
2022/05/10 07:06:54;;;;;;;7.05;4.95;;;20.50;99.30;;;;;;5013202;28;20058;-75
2022/05/10 07:09:21;;;;;;;7.97;4.80;;;20.50;99.00;;;;;;5012706;28;20498;-75
2022/05/10 07:11:48;;;;;;;9.77;5.25;;;20.60;98.80;;;;;;4994815;28;20069;-73
2022/05/10 07:14:14;;;;;;;8.55;5.00;;;20.70;98.40;;;;;;4995435;28;20089;-76
2022/05/10 07:16:42;;;;;;;9.75;4.88;;;20.70;98.00;;;;;;5007998;28;20058;-74
2022/05/10 07:19:09;;;;;;;9.60;5.53;;;20.80;98.10;;;;;;5012426;28;20359;-73
2022/05/10 07:21:36;;;;;;;10.00;4.85;;;21.00;97.90;;;;;;5011483;28;20088;-74
2022/05/10 07:24:03;;;;;;;9.15;4.60;;;21.00;97.50;;;;;;5028944;28;20069;-74
2022/05/10 07:26:30;;;;;;;7.47;4.40;;;21.20;97.60;;;;;;5031855;28;20452;-75
2022/05/10 07:28:57;;;;;;;10.43;4.50;;;21.50;97.10;;;;;;5032310;28;20057;-75
2022/05/10 07:31:23;;;;;;;8.40;5.03;;;21.80;96.90;;;;;;5032790;28;20115;-75
2022/05/10 07:33:51;;;;;;;9.55;5.10;;;22.20;96.30;;;;;;5014531;28;20103;-74
2022/05/10 07:36:33;;;;;;;9.15;4.47;;;22.40;94.80;;;;;;5014283;28;20080;-75
2022/05/10 07:39:00;;;;;;;9.48;5.25;;;22.50;94.80;;;;;;5015045;28;20053;-75
2022/05/10 07:41:28;;;;;;;11.55;5.10;;;22.60;94.30;;;;;;5012236;28;20053;-74
2022/05/10 07:43:55;;;;;;;7.78;5.00;;;22.70;94.30;;;;;;4997261;28;20061;-74
2022/05/10 07:46:22;;;;;;;10.10;5.63;;;22.80;94.00;;;;;;5016364;28;20054;-75
2022/05/10 07:48:49;;;;;;;10.05;5.50;;;22.60;93.60;;;;;;5011008;28;20045;-74
2022/05/10 07:51:17;;;;;;;8.48;5.50;;;22.50;93.90;;;;;;5036331;28;20543;-75
2022/05/10 07:53:45;;;;;;;8.95;5.43;;;22.40;93.80;;;;;;5035910;28;20215;-74
2022/05/10 07:56:12;;;;;;;10.27;4.65;;;22.30;93.70;;;;;;5036453;28;20111;-73
2022/05/10 07:58:38;;;;;;;8.15;4.22;;;22.20;93.40;;;;;;5018453;28;20049;-74
2022/05/10 08:01:07;;;;;;;10.38;5.25;;;22.10;93.50;;;;;;5018339;28;20096;-74
2022/05/10 08:03:34;;;;;;;7.10;3.88;;;22.10;93.30;;;;;;5018192;28;20103;-74
2022/05/10 08:06:02;;;;;;;12.57;5.15;;;22.20;93.50;;;;;;5036121;28;20065;-75
2022/05/10 08:08:33;;;;;;;11.75;4.93;;;22.20;93.50;;;;;;5035943;28;20452;-75
2022/05/10 08:11:00;;;;;;;8.05;4.47;;;22.30;93.30;;;;;;5036161;28;20107;-74
2022/05/10 08:13:29;;;;;;;9.68;4.60;;;22.50;93.30;;;;;;5036145;28;20050;-75
2022/05/10 08:15:56;;;;;;;14.40;4.18;;;22.60;93.20;;;;;;5035602;28;20053;-74
2022/05/10 08:18:24;;;;;;;6.90;3.88;;;22.70;92.90;;;;;;5017747;28;20045;-75
2022/05/10 08:20:53;;;;;;;8.48;4.18;;;22.70;92.70;;;;;;5035927;28;20414;-75
2022/05/10 08:23:23;;;;;;;9.93;3.85;;;22.60;92.30;;;;;;5035176;28;20093;-74
2022/05/10 08:25:53;;;;;;;7.22;3.67;;;22.40;92.40;;;;;;5018059;28;20119;-74
2022/05/10 08:28:20;;;;;;;11.20;4.18;;;22.30;92.60;;;;;;5035399;28;20064;-73
2022/05/10 08:30:48;;;;;;;9.80;3.95;;;22.10;92.50;;;;;;5017873;28;20045;-74
2022/05/10 08:33:18;;;;;;;11.60;4.07;;;22.20;92.80;;;;;;5036119;28;20049;-73
2022/05/10 08:35:45;;;;;;;8.60;3.65;;;22.30;92.90;;;;;;5035256;28;20134;-75
2022/05/10 08:38:12;;;;;;;5.93;3.22;;;22.40;92.80;;;;;;5017910;28;20134;-74
2022/05/10 08:40:47;;;;;;;6.57;3.47;;;22.50;92.60;;;;;;5035353;28;20041;-75
2022/05/10 08:43:21;;;;;;;10.68;3.65;;;22.70;92.50;;;;;;5003082;28;20137;-75
2022/05/10 08:45:48;;;;;;;6.78;3.00;;;22.80;92.30;;;;;;5017794;28;20053;-75
2022/05/10 08:48:15;;;;;;;11.98;3.90;;;22.90;92.30;;;;;;5017794;28;20140;-75
2022/05/10 08:50:46;;;;;;;7.40;3.30;;;22.90;92.20;;;;;;5015367;28;20045;-75
2022/05/10 08:53:17;;;;;;;10.75;3.10;;;22.90;92.00;;;;;;4998071;28;20449;-73
2022/05/10 08:55:50;;;;;;;10.07;3.33;;;22.90;91.80;;;;;;4997311;28;20085;-74
2022/05/10 08:58:38;;;;;;;5.72;3.17;;;22.80;91.80;;;;;;5002112;28;20053;-74
2022/05/10 09:01:09;;;;;;;7.07;2.85;;;22.70;91.60;;;;;;5035119;28;20496;-75
2022/05/10 09:03:43;;;;;;;13.48;3.83;;;22.60;91.30;;;;;;5035064;28;20049;-75
2022/05/10 09:06:18;;;;;;;6.30;3.47;;;22.60;91.10;;;;;;5035101;28;20103;-75
2022/05/10 09:09:03;;;;;;;6.28;2.83;;;22.60;91.10;;;;;;5017099;28;20398;-75
2022/05/10 09:11:40;;;;;;;7.13;3.42;;;22.60;91.10;;;;;;5017146;28;20073;-74
2022/05/10 09:14:09;;;;;;;8.88;2.88;;;22.70;90.90;;;;;;5034546;28;20049;-75
2022/05/10 09:16:36;;;;;;;8.77;3.45;;;22.80;90.90;;;;;;5017571;28;20443;-73
2022/05/10 09:19:03;;;;;;;6.97;2.60;;;22.80;90.70;;;;;;5016886;28;20057;-75
2022/05/10 09:21:40;;;;;;;12.07;3.80;;;22.80;90.60;;;;;;5016804;28;20081;-75
2022/05/10 09:24:16;;;;;;;7.15;3.42;;;22.80;90.50;;;;;;5034255;28;20475;-74
2022/05/10 09:26:45;;;;;;;8.55;3.13;;;22.90;90.30;;;;;;5017032;28;20159;-75
2022/05/10 09:29:18;;;;;;;6.80;3.05;;;23.00;90.60;;;;;;5034300;28;20053;-75
2022/05/10 09:34:48;;;;;;;9.75;3.40;;;23.60;90.20;;;;;;5034712;28;20052;-75
2022/05/10 09:37:18;;;;;;;10.70;3.70;;;23.70;89.40;;;;;;5034888;28;20067;-75
2022/05/10 09:39:49;;;;;;;8.00;3.15;;;23.80;88.60;;;;;;5033766;28;20559;-75
2022/05/10 09:42:27;;;;;;;10.05;4.05;;;23.70;88.40;;;;;;5025240;28;20058;-76
2022/05/10 09:45:05;;;;;;;12.38;4.57;;;23.80;88.80;;;;;;5025179;28;20080;-75
2022/05/10 09:47:33;;;;;;;6.85;4.03;;;23.90;88.10;;;;;;5016030;28;20085;-74
2022/05/10 09:50:15;;;;;;;11.68;3.75;;;24.10;87.30;;;;;;5016330;28;20053;-76
2022/05/10 09:52:43;;;;;;;8.38;3.58;;;24.60;87.50;;;;;;5015560;28;20500;-74
2022/05/10 09:55:23;;;;;;;13.88;4.70;;;24.90;85.90;;;;;;5027218;28;20103;-74
2022/05/10 09:57:50;;;;;;;8.13;4.22;;;24.90;85.60;;;;;;5033908;28;20056;-76
2022/05/10 10:00:39;;;;;;;13.82;3.80;;;24.60;85.70;;;;;;5033197;28;20045;-75
2022/05/10 10:03:06;;;;;;;10.15;4.20;;;24.20;85.30;;;;;;5033620;28;20053;-75
2022/05/10 10:05:35;;;;;;;10.68;3.97;;;23.90;86.00;;;;;;5016098;28;20057;-75
2022/05/10 10:08:02;;;;;;;8.02;3.80;;;23.80;87.00;;;;;;5015354;28;20059;-74
2022/05/10 10:10:31;;;;;;;8.02;4.40;;;23.80;87.40;;;;;;5016136;28;20096;-76
2022/05/10 10:13:19;;;;;;;10.63;4.28;;;23.80;87.80;;;;;;5033609;28;20133;-76
2022/05/10 10:15:48;;;;;;;10.93;5.32;;;23.80;88.00;;;;;;5033187;28;20058;-76
2022/05/10 10:18:43;;;;;;;7.72;4.40;;;24.10;88.40;;;;;;5033639;28;20056;-75
2022/05/10 10:21:12;;;;;;;7.80;4.65;;;24.40;88.90;;;;;;5016212;28;20046;-76
2022/05/10 10:23:41;;;;;;;11.25;4.90;;;24.60;87.90;;;;;;5016846;28;20116;-75
2022/05/10 10:26:14;;;;;;;16.73;5.53;;;25.00;86.90;;;;;;5016590;28;20103;-75
2022/05/10 10:28:50;;;;;;;11.27;5.47;;;25.40;86.80;;;;;;5016388;28;20049;-73
2022/05/10 10:31:26;;;;;;;8.55;4.95;;;25.80;85.60;;;;;;5033529;28;20432;-76
2022/05/10 10:34:01;;;;;;;11.65;4.80;;;25.70;84.90;;;;;;5016038;28;20096;-75
2022/05/10 10:36:33;;;;;;;13.30;6.85;;;25.70;84.70;;;;;;5015501;28;20555;-75
2022/05/10 10:39:06;;;;;;;10.70;5.80;;;25.40;84.50;;;;;;5015649;28;20088;-76
2022/05/10 10:41:45;;;;;;;8.45;5.07;;;25.60;85.00;;;;;;5031798;28;20042;-74
2022/05/10 10:44:20;;;;;;;11.43;5.35;;;25.50;85.20;;;;;;5014923;28;20446;-76
2022/05/10 10:47:08;;;;;;;13.38;5.40;;;25.30;84.90;;;;;;5015309;28;20053;-76
2022/05/10 10:49:42;;;;;;;7.60;5.10;;;25.00;85.30;;;;;;5032469;28;20085;-75
2022/05/10 10:52:09;;;;;;;9.50;4.47;;;24.90;86.30;;;;;;5015602;28;20057;-75
2022/05/10 10:54:36;;;;;;;9.15;5.10;;;24.70;86.60;;;;;;5033307;28;20115;-75
2022/05/10 10:57:26;;;;;;;7.55;4.45;;;24.60;87.10;;;;;;5032781;28;20508;-75
2022/05/10 11:00:06;;;;;;;9.65;5.35;;;24.40;87.80;;;;;;5032910;28;20085;-75
2022/05/10 11:03:06;;;;;;;10.85;4.82;;;24.20;87.70;;;;;;5015967;28;20061;-75
2022/05/10 11:06:01;;;;;;;8.25;4.30;;;24.00;87.90;;;;;;5014974;28;20059;-76
2022/05/10 11:08:49;;;;;;;10.32;3.95;;;23.70;89.10;;;;;;5016002;28;20049;-76
2022/05/10 11:11:24;;;;;;;6.97;3.65;;;23.50;89.00;;;;;;5005649;28;20564;-75
2022/05/10 11:14:02;;;;;;;11.15;3.63;;;23.20;88.00;;;;;;5032395;28;20096;-74
2022/05/10 11:16:39;;;;;;;13.88;3.30;;;23.10;87.00;;;;;;5034042;28;20088;-75
2022/05/10 11:19:33;;;;;;;6.97;3.08;;;23.10;87.30;;;;;;5032049;28;20071;-75
2022/05/10 11:22:10;;;;;;;8.05;3.08;;;23.10;86.70;;;;;;5001179;28;20504;-75
2022/05/10 11:24:44;;;;;;;8.00;3.20;;;23.20;86.10;;;;;;5013692;28;20064;-75
2022/05/10 11:27:24;;;;;;;10.80;2.97;;;23.40;86.20;;;;;;5004446;28;20104;-75
2022/05/10 11:30:06;;;;;;;11.75;3.17;;;23.60;86.30;;;;;;5009244;28;20062;-75
2022/05/10 11:32:45;;;;;;;7.90;3.58;;;23.80;85.60;;;;;;5012024;28;20437;-75
2022/05/10 11:35:41;;;;;;;5.57;3.55;;;23.90;85.60;;;;;;5032515;28;20088;-75
2022/05/10 11:38:15;;;;;;;7.18;3.67;;;23.90;85.30;;;;;;5028737;28;20092;-75
2022/05/10 11:40:58;;;;;;;7.60;3.97;;;23.80;84.70;;;;;;5014162;28;20525;-74
2022/05/10 11:44:06;;;;;;;8.38;4.55;;;23.90;85.00;;;;;;5014874;28;20054;-75
2022/05/10 11:47:12;;;;;;;11.80;4.07;;;23.90;85.30;;;;;;5014439;28;20119;-75
2022/05/10 11:49:56;;;;;;;8.32;4.50;;;23.70;85.80;;;;;;5010710;28;20121;-74
2022/05/10 11:52:51;;;;;;;8.75;5.03;;;23.70;86.00;;;;;;5014724;28;20108;-75
2022/05/10 11:55:28;;;;;;;9.75;5.07;;;23.60;86.70;;;;;;5013002;28;20481;-75
2022/05/10 11:57:59;;;;;;;10.35;4.50;;;23.90;86.80;;;;;;5032714;28;20045;-74
2022/05/10 12:00:50;;;;;;;9.60;4.97;;;24.20;86.90;;;;;;5031070;28;20049;-74
2022/05/10 12:03:51;;;;;;;7.60;4.40;;;24.70;86.30;;;;;;5014876;28;20064;-75
2022/05/10 12:06:48;;;;;;;12.45;5.85;;;25.30;85.50;;;;;;5014732;28;20552;-75
2022/05/10 12:09:51;;;;;;;15.85;6.70;;;25.50;84.60;;;;;;4955222;28;20407;-74
2022/05/10 12:12:56;;;;;;;11.63;6.85;;;25.40;84.50;;;;;;5014378;28;20054;-76
2022/05/10 12:21:55;;;;;;;9.27;5.97;;;25.00;86.10;;;;;;5032275;28;20048;-75
2022/05/10 12:24:36;;;;;;;14.82;5.75;;;25.00;86.40;;;;;;5015926;28;20054;-74
2022/05/10 12:27:33;;;;;;;6.95;5.00;;;24.90;86.80;;;;;;4992884;28;20054;-74
2022/05/10 12:30:33;;;;;;;7.43;3.95;;;25.00;86.00;;;;;;5013094;28;20092;-73
2022/05/10 12:33:33;;;;;;;9.20;4.13;;;24.80;85.50;;;;;;5011549;28;20092;-75
2022/05/10 12:36:07;;;;;;;7.82;3.95;;;24.70;86.10;;;;;;4999165;28;20498;-74
2022/05/10 12:38:44;;;;;;;9.45;4.43;;;24.60;86.00;;;;;;5014052;28;20068;-75
2022/05/10 12:41:46;;;;;;;12.52;4.00;;;24.60;85.70;;;;;;5008268;28;20049;-74
2022/05/10 12:44:44;;;;;;;6.80;3.95;;;24.20;86.30;;;;;;5024993;28;20077;-74
2022/05/10 12:47:36;;;;;;;8.65;3.80;;;24.00;87.20;;;;;;5013137;28;20057;-74
2022/05/10 12:50:19;;;;;;;7.00;2.40;;;24.10;86.90;;;;;;5014987;28;20125;-74
2022/05/10 12:52:47;;;;;;;9.20;2.85;;;23.70;84.40;;;;;;4996984;28;20103;-75
2022/05/10 12:55:19;;;;;;;9.98;2.63;;;23.50;82.90;;;;;;5034495;28;20053;-75
2022/05/10 12:57:54;;;;;;;4.95;2.70;;;23.30;84.20;;;;;;4998076;28;20496;-74
2022/05/10 13:00:23;;;;;;;8.40;2.10;;;23.50;83.90;;;;;;5032965;28;20459;-75
2022/05/10 13:02:54;;;;;;;10.30;2.55;;;23.50;83.10;;;;;;5016178;28;20049;-74
2022/05/10 13:05:27;;;;;;;11.43;2.50;;;23.50;80.00;;;;;;5013546;28;20165;-75
2022/05/10 13:08:19;;;;;;;5.63;2.30;;;23.50;80.30;;;;;;5003497;28;20486;-75
2022/05/10 13:10:46;;;;;;;4.50;1.80;;;23.40;78.80;;;;;;4996019;28;20108;-73
2022/05/10 13:13:19;;;;;;;7.10;2.05;;;23.10;75.30;;;;;;5000273;28;20551;-74
2022/05/10 13:15:48;;;;;;;5.85;2.47;;;23.10;76.40;;;;;;5007185;28;20060;-76
2022/05/10 13:18:18;;;;;;;14.77;2.42;;;23.00;78.20;;;;;;5000409;28;20065;-75
2022/05/10 13:20:47;;;;;;;6.78;2.00;;;22.90;76.90;;;;;;5004463;28;20092;-74
2022/05/10 13:23:14;;;;;;;9.27;2.30;;;22.80;75.60;;;;;;5014417;28;20077;-74
2022/05/10 13:25:43;;;;;;;4.20;2.05;;;22.70;76.30;;;;;;4976524;28;20128;-75